Ashville, Ohio
Current Conditions -  °F | °C
As of 7:15 AM on Monday 20 Oct 2014 (Local Time) from KLCK Reporting Station
Broken Clouds Broken Clouds  
Wind Chill: 42°   Ceiling: 11000
Heat Index: 45°   Visibility: 10mi
Dew Point: 41°   Wind: 6mph
Humidity: 85%   Direction: 190°S
Pressure: 29.99"   Gusts: NA
Location:  39.72°N, 82.95°W
Report Text: KLCK 201115Z AUTO 19005KT 10SM BKN110 07/05 A2999 RMK AO2 T00710048
Loading
Personal Weather Stations






























Interactive Weather Map
Tropical Storm Tracking
New forecast layout! Learn more

10-Day Weather Forecast

Advertisements
Track Severe Weather on mobile